sensor_id;sensor_type;location;lat;lon;timestamp;P1;durP1;ratioP1;P2;durP2;ratioP2
18399;SDS011;9326;49.468;11.008;2023-08-20T20:58:09;8.40;;;7.63;;
18399;SDS011;9326;49.468;11.008;2023-08-20T21:00:36;8.90;;;8.07;;
18399;SDS011;9326;49.468;11.008;2023-08-20T21:03:03;9.90;;;8.20;;
18399;SDS011;9326;49.468;11.008;2023-08-20T21:05:30;9.30;;;7.97;;
18399;SDS011;9326;49.468;11.008;2023-08-20T21:07:57;10.20;;;8.30;;
18399;SDS011;9326;49.468;11.008;2023-08-20T21:10:24;9.07;;;8.17;;
18399;SDS011;9326;49.468;11.008;2023-08-20T21:12:54;10.97;;;9.00;;
18399;SDS011;9326;49.468;11.008;2023-08-20T21:15:22;9.03;;;8.23;;
18399;SDS011;9326;49.468;11.008;2023-08-20T21:17:49;9.87;;;8.83;;
18399;SDS011;9326;49.468;11.008;2023-08-20T21:20:16;9.63;;;8.40;;
18399;SDS011;9326;49.468;11.008;2023-08-20T21:22:43;9.50;;;8.57;;
18399;SDS011;9326;49.468;11.008;2023-08-20T21:25:10;9.40;;;8.47;;
18399;SDS011;9326;49.468;11.008;2023-08-20T21:27:37;9.40;;;8.57;;
18399;SDS011;9326;49.468;11.008;2023-08-20T21:30:05;9.07;;;8.17;;
18399;SDS011;9326;49.468;11.008;2023-08-20T21:32:33;9.70;;;8.43;;
18399;SDS011;9326;49.468;11.008;2023-08-20T21:35:00;9.63;;;8.73;;
18399;SDS011;9326;49.468;11.008;2023-08-20T21:37:27;9.47;;;8.57;;
18399;SDS011;9326;49.468;11.008;2023-08-20T21:39:55;9.20;;;8.50;;
18399;SDS011;9326;49.468;11.008;2023-08-20T21:42:22;9.53;;;8.40;;
18399;SDS011;9326;49.468;11.008;2023-08-20T21:44:49;9.50;;;8.70;;
18399;SDS011;9326;49.468;11.008;2023-08-20T21:47:20;9.57;;;8.57;;
18399;SDS011;9326;49.468;11.008;2023-08-20T21:49:49;10.20;;;9.13;;
18399;SDS011;9326;49.468;11.008;2023-08-20T21:52:16;10.10;;;9.00;;
18399;SDS011;9326;49.468;11.008;2023-08-20T21:54:44;12.57;;;8.83;;
18399;SDS011;9326;49.468;11.008;2023-08-20T21:57:14;9.80;;;8.93;;
18399;SDS011;9326;49.468;11.008;2023-08-20T21:59:42;9.90;;;9.00;;
18399;SDS011;9326;49.468;11.008;2023-08-20T22:02:09;10.57;;;9.53;;
18399;SDS011;9326;49.468;11.008;2023-08-20T22:04:36;9.90;;;8.90;;
18399;SDS011;9326;49.468;11.008;2023-08-20T22:07:05;11.93;;;8.63;;
18399;SDS011;9326;49.468;11.008;2023-08-20T22:09:32;9.97;;;8.97;;
18399;SDS011;9326;49.468;11.008;2023-08-20T22:11:59;10.17;;;9.27;;
18399;SDS011;9326;49.468;11.008;2023-08-20T22:14:26;12.63;;;9.33;;
18399;SDS011;9326;49.468;11.008;2023-08-20T22:16:53;12.80;;;9.90;;
18399;SDS011;9326;49.468;11.008;2023-08-20T22:19:21;10.70;;;9.80;;
18399;SDS011;9326;49.468;11.008;2023-08-20T22:21:48;10.23;;;9.20;;
18399;SDS011;9326;49.468;11.008;2023-08-20T22:24:16;10.07;;;9.07;;
18399;SDS011;9326;49.468;11.008;2023-08-20T22:26:44;10.20;;;9.10;;
18399;SDS011;9326;49.468;11.008;2023-08-20T22:29:12;9.90;;;8.90;;
18399;SDS011;9326;49.468;11.008;2023-08-20T22:31:39;11.50;;;10.30;;
18399;SDS011;9326;49.468;11.008;2023-08-20T22:34:06;10.93;;;9.83;;
18399;SDS011;9326;49.468;11.008;2023-08-20T22:36:33;10.40;;;9.33;;
18399;SDS011;9326;49.468;11.008;2023-08-20T22:39:00;10.50;;;9.50;;
18399;SDS011;9326;49.468;11.008;2023-08-20T22:41:31;10.43;;;9.53;;
18399;SDS011;9326;49.468;11.008;2023-08-20T22:43:58;15.33;;;10.10;;
18399;SDS011;9326;49.468;11.008;2023-08-20T22:46:25;11.37;;;10.23;;
18399;SDS011;9326;49.468;11.008;2023-08-20T22:48:52;10.60;;;9.60;;
18399;SDS011;9326;49.468;11.008;2023-08-20T22:51:19;11.10;;;10.00;;
18399;SDS011;9326;49.468;11.008;2023-08-20T22:53:46;10.70;;;9.23;;
18399;SDS011;9326;49.468;11.008;2023-08-20T22:56:13;9.60;;;8.60;;
18399;SDS011;9326;49.468;11.008;2023-08-20T22:58:42;10.70;;;9.80;;
18399;SDS011;9326;49.468;11.008;2023-08-20T23:01:10;10.50;;;9.53;;
18399;SDS011;9326;49.468;11.008;2023-08-20T23:03:37;10.60;;;9.33;;
18399;SDS011;9326;49.468;11.008;2023-08-20T23:06:04;11.57;;;10.37;;
18399;SDS011;9326;49.468;11.008;2023-08-20T23:08:31;10.80;;;9.63;;
18399;SDS011;9326;49.468;11.008;2023-08-20T23:10:58;10.80;;;9.70;;
18399;SDS011;9326;49.468;11.008;2023-08-20T23:13:25;10.70;;;9.70;;
18399;SDS011;9326;49.468;11.008;2023-08-20T23:15:54;10.97;;;9.97;;
18399;SDS011;9326;49.468;11.008;2023-08-20T23:18:21;11.57;;;10.13;;
18399;SDS011;9326;49.468;11.008;2023-08-20T23:20:51;10.43;;;9.53;;
18399;SDS011;9326;49.468;11.008;2023-08-20T23:23:19;10.63;;;9.63;;
18399;SDS011;9326;49.468;11.008;2023-08-20T23:25:46;10.97;;;9.87;;
18399;SDS011;9326;49.468;11.008;2023-08-20T23:28:14;11.17;;;10.10;;
18399;SDS011;9326;49.468;11.008;2023-08-20T23:30:41;11.87;;;10.57;;
18399;SDS011;9326;49.468;11.008;2023-08-20T23:33:10;11.13;;;10.03;;
18399;SDS011;9326;49.468;11.008;2023-08-20T23:35:38;11.10;;;9.97;;
18399;SDS011;9326;49.468;11.008;2023-08-20T23:38:06;11.90;;;10.13;;
18399;SDS011;9326;49.468;11.008;2023-08-20T23:40:33;11.47;;;10.37;;
18399;SDS011;9326;49.468;11.008;2023-08-20T23:43:00;11.33;;;10.23;;
18399;SDS011;9326;49.468;11.008;2023-08-20T23:45:27;11.20;;;10.03;;
18399;SDS011;9326;49.468;11.008;2023-08-20T23:47:54;11.67;;;10.50;;
18399;SDS011;9326;49.468;11.008;2023-08-20T23:50:22;11.37;;;10.20;;
18399;SDS011;9326;49.468;11.008;2023-08-20T23:52:49;11.10;;;10.10;;
18399;SDS011;9326;49.468;11.008;2023-08-20T23:55:17;11.47;;;9.90;;
18399;SDS011;9326;49.468;11.008;2023-08-20T23:57:44;13.47;;;10.57;;
